createdAt,value
2018-12-07T00:00:55.671Z,4.77
2018-12-07T00:03:23.441Z,4.50
2018-12-07T00:05:50.815Z,4.90
2018-12-07T00:08:18.368Z,3.90
2018-12-07T00:10:46.012Z,3.70
2018-12-07T00:13:13.804Z,4.90
2018-12-07T00:15:41.501Z,3.77
2018-12-07T00:18:09.084Z,4.53
2018-12-07T00:20:36.522Z,3.97
2018-12-07T00:23:04.209Z,3.80
2018-12-07T00:25:31.698Z,3.10
2018-12-07T00:27:59.508Z,3.43
2018-12-07T00:30:27.380Z,3.07
2018-12-07T00:35:35.168Z,3.63
2018-12-07T00:38:03.096Z,3.67
2018-12-07T00:40:30.650Z,3.67
2018-12-07T00:42:58.195Z,3.00
2018-12-07T00:45:25.844Z,3.30
2018-12-07T00:47:53.552Z,3.33
2018-12-07T00:50:20.902Z,3.00
2018-12-07T00:52:48.560Z,3.10
2018-12-07T00:55:27.457Z,2.83
2018-12-07T00:57:55.194Z,2.80
2018-12-07T01:00:22.582Z,2.80
2018-12-07T01:02:50.392Z,2.70
2018-12-07T01:05:18.094Z,2.80
2018-12-07T01:07:45.584Z,2.90
2018-12-07T01:10:13.360Z,2.50
2018-12-07T01:12:40.916Z,2.50
2018-12-07T01:15:08.705Z,3.10
2018-12-07T01:17:36.507Z,2.50
2018-12-07T01:20:04.549Z,2.50
2018-12-07T01:22:33.804Z,2.60
2018-12-07T01:25:01.435Z,2.80
2018-12-07T01:27:29.066Z,2.97
2018-12-07T01:29:57.177Z,3.10
2018-12-07T01:32:24.851Z,2.40
2018-12-07T01:34:52.448Z,2.67
2018-12-07T01:37:20.051Z,2.50
2018-12-07T01:39:47.676Z,2.97
2018-12-07T01:42:15.118Z,3.23
2018-12-07T01:44:42.724Z,3.20
2018-12-07T01:47:10.356Z,3.00
2018-12-07T01:49:38.012Z,2.90
2018-12-07T01:52:05.693Z,2.77
2018-12-07T01:54:33.224Z,2.70
2018-12-07T01:57:00.869Z,2.83
2018-12-07T01:59:28.464Z,2.30
2018-12-07T02:01:56.232Z,2.83
2018-12-07T02:04:24.048Z,1.90
2018-12-07T02:06:51.619Z,2.33
2018-12-07T02:09:19.276Z,2.57
2018-12-07T02:11:46.880Z,2.43
2018-12-07T02:14:14.488Z,2.33
2018-12-07T02:16:42.210Z,2.80
2018-12-07T02:19:09.790Z,1.93
2018-12-07T02:21:37.719Z,2.20
2018-12-07T02:24:05.148Z,2.30
2018-12-07T02:26:33.752Z,1.90
2018-12-07T02:29:01.129Z,2.20
2018-12-07T02:31:28.889Z,1.90
2018-12-07T02:33:56.539Z,1.87
2018-12-07T02:36:24.401Z,2.33
2018-12-07T02:38:51.969Z,2.20
2018-12-07T02:41:19.435Z,2.00
2018-12-07T02:43:46.994Z,1.63
2018-12-07T02:46:14.664Z,1.97
2018-12-07T02:48:42.405Z,1.70
2018-12-07T02:51:10.100Z,1.93
2018-12-07T02:53:37.692Z,1.90
2018-12-07T02:56:05.393Z,2.07
2018-12-07T02:58:33.255Z,2.17
2018-12-07T03:01:00.983Z,1.83
2018-12-07T03:03:28.629Z,1.83
2018-12-07T03:05:56.080Z,2.00
2018-12-07T03:08:23.826Z,1.87
2018-12-07T03:10:51.294Z,1.70
2018-12-07T03:13:18.985Z,2.10
2018-12-07T03:15:46.726Z,1.73
2018-12-07T03:18:30.011Z,1.80
2018-12-07T03:20:57.467Z,2.20
2018-12-07T03:23:25.508Z,2.00
2018-12-07T03:25:53.381Z,1.97
2018-12-07T03:28:20.901Z,1.67
2018-12-07T03:30:48.525Z,1.50
2018-12-07T03:33:16.135Z,1.60
2018-12-07T03:35:43.489Z,2.00
2018-12-07T03:38:11.130Z,1.80
2018-12-07T03:40:39.061Z,1.90
2018-12-07T03:43:06.769Z,1.40
2018-12-07T03:45:34.588Z,1.73
2018-12-07T03:48:02.255Z,1.43
2018-12-07T03:50:29.704Z,1.80
2018-12-07T03:52:57.181Z,1.40
2018-12-07T03:55:24.749Z,1.57
2018-12-07T03:57:52.352Z,1.40
2018-12-07T04:00:20.155Z,1.40
2018-12-07T04:02:47.788Z,1.70
2018-12-07T04:05:15.547Z,2.13
2018-12-07T04:07:43.322Z,1.17
2018-12-07T04:10:10.860Z,1.50
2018-12-07T04:12:38.593Z,1.43
2018-12-07T04:15:06.296Z,1.40
2018-12-07T04:17:34.018Z,1.40
2018-12-07T04:20:01.615Z,1.50
2018-12-07T04:22:29.322Z,1.20
2018-12-07T04:24:57.004Z,1.33
2018-12-07T04:27:24.817Z,1.57
2018-12-07T04:30:02.590Z,1.40
2018-12-07T04:32:30.370Z,1.30
2018-12-07T04:34:58.017Z,1.63
2018-12-07T04:37:25.709Z,1.50
2018-12-07T04:39:53.492Z,1.40
2018-12-07T04:42:21.091Z,1.50
2018-12-07T04:44:48.411Z,1.63
2018-12-07T04:47:16.224Z,1.87
2018-12-07T04:49:43.808Z,1.53
2018-12-07T04:52:11.471Z,1.50
2018-12-07T04:54:39.218Z,1.60
2018-12-07T04:57:06.676Z,1.63
2018-12-07T04:59:34.406Z,1.80
2018-12-07T05:02:02.173Z,1.60
2018-12-07T05:04:29.886Z,1.50
2018-12-07T05:06:57.553Z,1.57
2018-12-07T05:09:25.206Z,2.30
2018-12-07T05:11:52.984Z,2.00
2018-12-07T05:14:20.636Z,1.83
2018-12-07T05:16:48.120Z,2.00
2018-12-07T05:19:18.642Z,1.80
2018-12-07T05:21:46.237Z,2.50
2018-12-07T05:24:13.984Z,2.63
2018-12-07T05:26:41.549Z,2.57
2018-12-07T05:29:09.217Z,3.17
2018-12-07T05:31:36.624Z,3.07
2018-12-07T05:34:04.229Z,3.00
2018-12-07T05:36:32.001Z,3.60
2018-12-07T05:38:59.395Z,3.17
2018-12-07T05:41:27.087Z,2.93
2018-12-07T05:43:56.303Z,3.20
2018-12-07T05:46:24.182Z,2.80
2018-12-07T05:48:52.017Z,3.20
2018-12-07T05:51:19.857Z,3.40
2018-12-07T05:53:47.715Z,3.40
2018-12-07T05:56:15.424Z,3.63
2018-12-07T05:58:42.895Z,3.87
2018-12-07T06:01:10.549Z,4.23
2018-12-07T06:03:38.172Z,5.00
2018-12-07T06:06:05.757Z,4.20
2018-12-07T06:08:33.113Z,4.20
2018-12-07T06:11:00.597Z,3.53
2018-12-07T06:13:28.125Z,3.27
2018-12-07T06:15:55.753Z,3.37
2018-12-07T06:18:23.443Z,2.77
2018-12-07T06:20:50.793Z,2.23
2018-12-07T06:23:18.527Z,2.10
2018-12-07T06:25:46.131Z,2.47
2018-12-07T06:28:13.735Z,2.60
2018-12-07T06:30:41.477Z,2.00
2018-12-07T06:33:09.153Z,3.30
2018-12-07T06:35:36.661Z,3.17
2018-12-07T06:38:04.364Z,3.60
2018-12-07T06:40:32.006Z,3.33
2018-12-07T06:42:59.616Z,4.50
2018-12-07T06:45:27.216Z,2.93
2018-12-07T06:47:55.028Z,2.63
2018-12-07T06:50:22.364Z,3.50
2018-12-07T06:52:50.052Z,3.10
2018-12-07T06:55:17.554Z,2.57
2018-12-07T06:57:45.255Z,2.90
2018-12-07T07:00:12.960Z,2.93
2018-12-07T07:02:40.782Z,8.30
2018-12-07T07:05:08.668Z,3.30
2018-12-07T07:07:36.414Z,2.40
2018-12-07T07:10:04.882Z,2.67
2018-12-07T07:12:32.718Z,2.33
2018-12-07T07:15:00.509Z,2.80
2018-12-07T07:17:28.114Z,2.30
2018-12-07T07:19:55.813Z,2.83
2018-12-07T07:22:23.473Z,2.40
2018-12-07T07:24:51.253Z,2.90
2018-12-07T07:27:18.959Z,2.30
2018-12-07T07:29:46.629Z,2.60
2018-12-07T07:32:14.378Z,1.97
2018-12-07T07:34:41.966Z,2.10
2018-12-07T07:37:09.480Z,2.07
2018-12-07T07:39:37.167Z,2.50
2018-12-07T07:42:04.665Z,2.90
2018-12-07T07:44:32.358Z,2.13
2018-12-07T07:46:59.942Z,2.63
2018-12-07T07:49:27.421Z,2.50
2018-12-07T07:51:55.174Z,2.40
2018-12-07T07:54:22.730Z,2.13
2018-12-07T07:56:50.352Z,2.30
2018-12-07T07:59:18.055Z,2.27
2018-12-07T08:01:45.902Z,2.43
2018-12-07T08:04:13.652Z,2.20
2018-12-07T08:06:41.268Z,2.17
2018-12-07T08:09:08.890Z,2.90
2018-12-07T08:11:36.498Z,4.50
2018-12-07T08:14:04.169Z,2.60
2018-12-07T08:16:31.789Z,2.37
2018-12-07T08:18:59.279Z,2.57
2018-12-07T08:21:27.162Z,2.73
2018-12-07T08:23:54.513Z,2.37
2018-12-07T08:26:22.190Z,3.03
2018-12-07T08:28:49.976Z,2.37
2018-12-07T08:31:17.584Z,2.50
2018-12-07T08:33:45.335Z,3.60
2018-12-07T08:36:13.199Z,3.30
2018-12-07T08:38:40.974Z,2.67
2018-12-07T08:41:08.731Z,2.60
2018-12-07T08:43:36.437Z,2.60
2018-12-07T08:46:04.527Z,2.43
2018-12-07T08:48:32.370Z,2.70
2018-12-07T08:51:00.083Z,2.97
2018-12-07T08:53:27.663Z,2.60
2018-12-07T08:55:55.413Z,2.00
2018-12-07T08:58:23.160Z,2.23
2018-12-07T09:00:50.757Z,2.47
2018-12-07T09:03:18.461Z,2.70
2018-12-07T09:05:45.984Z,3.47
2018-12-07T09:08:15.344Z,1.90
2018-12-07T09:10:42.972Z,2.30
2018-12-07T09:13:10.676Z,2.27
2018-12-07T09:15:38.265Z,2.00
2018-12-07T09:18:05.921Z,2.37
2018-12-07T09:20:33.327Z,2.33
2018-12-07T09:23:00.929Z,2.03
2018-12-07T09:25:28.639Z,2.00
2018-12-07T09:27:56.419Z,2.93
2018-12-07T09:30:24.161Z,2.30
2018-12-07T09:32:53.193Z,2.00
2018-12-07T09:35:20.749Z,2.13
2018-12-07T09:37:48.377Z,1.70
2018-12-07T09:40:16.130Z,1.60
2018-12-07T09:42:43.875Z,2.10
2018-12-07T09:45:11.697Z,1.93
2018-12-07T09:47:39.135Z,1.90
2018-12-07T09:50:07.440Z,2.20
2018-12-07T09:52:34.869Z,2.20
2018-12-07T09:55:02.565Z,2.30
2018-12-07T09:57:30.219Z,2.73
2018-12-07T09:59:57.920Z,2.67
2018-12-07T10:02:25.766Z,2.20
2018-12-07T10:04:53.617Z,2.70
2018-12-07T10:07:21.296Z,2.00
2018-12-07T10:09:48.752Z,2.17
2018-12-07T10:12:16.363Z,1.60
2018-12-07T10:14:44.067Z,2.50
2018-12-07T10:17:11.639Z,2.10
2018-12-07T10:19:39.506Z,2.67
2018-12-07T10:22:07.095Z,2.20
2018-12-07T10:24:34.620Z,2.10
2018-12-07T10:27:06.380Z,2.33
2018-12-07T10:29:34.291Z,1.90
2018-12-07T10:32:01.997Z,2.23
2018-12-07T10:34:29.414Z,2.27
2018-12-07T10:36:57.319Z,2.20
2018-12-07T10:39:24.910Z,2.73
2018-12-07T10:41:52.660Z,2.83
2018-12-07T10:44:20.223Z,2.27
2018-12-07T10:46:47.876Z,2.63
2018-12-07T10:49:15.523Z,2.30
2018-12-07T10:51:43.198Z,3.30
2018-12-07T10:54:11.102Z,2.83
2018-12-07T10:56:38.968Z,2.50
2018-12-07T10:59:06.660Z,3.50
2018-12-07T11:01:41.398Z,2.90
2018-12-07T11:05:17.375Z,2.03
2018-12-07T11:07:50.742Z,2.27
2018-12-07T11:10:24.097Z,2.80
2018-12-07T11:12:57.409Z,2.27
2018-12-07T11:15:30.994Z,2.23
2018-12-07T11:18:04.192Z,3.07
2018-12-07T11:20:37.372Z,2.77
2018-12-07T11:23:10.785Z,2.77
2018-12-07T11:25:44.244Z,2.17
2018-12-07T11:28:17.697Z,2.07
2018-12-07T11:30:50.763Z,2.67
2018-12-07T11:33:39.157Z,2.23
2018-12-07T11:36:08.234Z,3.37
2018-12-07T11:38:36.258Z,1.60
2018-12-07T11:41:04.168Z,2.10
2018-12-07T11:43:32.061Z,2.43
2018-12-07T11:45:59.811Z,2.53
2018-12-07T11:48:27.491Z,2.73
2018-12-07T11:50:54.875Z,2.80
2018-12-07T11:53:22.578Z,2.10
2018-12-07T11:55:50.326Z,2.30
2018-12-07T11:58:18.026Z,2.60
2018-12-07T12:00:45.538Z,2.00
2018-12-07T12:03:12.967Z,2.67
2018-12-07T12:05:40.444Z,1.87
2018-12-07T12:08:07.796Z,2.03
2018-12-07T12:10:35.882Z,2.03
2018-12-07T12:13:03.566Z,1.90
2018-12-07T12:15:31.271Z,1.73
2018-12-07T12:17:58.941Z,2.27
2018-12-07T12:20:26.537Z,1.90
2018-12-07T12:22:54.144Z,1.80
2018-12-07T12:25:21.949Z,2.30
2018-12-07T12:27:49.502Z,2.43
2018-12-07T12:30:17.942Z,1.83
2018-12-07T12:32:45.544Z,2.57
2018-12-07T12:35:13.324Z,2.53
2018-12-07T12:37:40.885Z,2.43
2018-12-07T12:40:08.763Z,2.30
2018-12-07T12:42:36.348Z,1.90
2018-12-07T12:45:04.255Z,2.20
2018-12-07T12:47:32.053Z,2.33
2018-12-07T12:49:59.492Z,2.50
2018-12-07T12:52:27.365Z,2.50
2018-12-07T12:54:55.133Z,1.90
2018-12-07T12:57:22.789Z,2.23
2018-12-07T12:59:50.397Z,2.20
2018-12-07T13:02:18.134Z,2.40
2018-12-07T13:04:45.857Z,1.67
2018-12-07T13:07:13.604Z,2.90
2018-12-07T13:09:41.161Z,1.73
2018-12-07T13:12:08.765Z,2.07
2018-12-07T13:14:36.393Z,1.30
2018-12-07T13:17:04.069Z,1.73
2018-12-07T13:19:31.861Z,1.90
2018-12-07T13:21:59.581Z,2.00
2018-12-07T13:24:27.425Z,1.40
2018-12-07T13:26:55.123Z,1.70
2018-12-07T13:29:23.527Z,1.63
2018-12-07T13:31:53.870Z,1.33
2018-12-07T13:34:21.434Z,1.40
2018-12-07T13:36:48.906Z,1.80
2018-12-07T13:39:16.783Z,1.97
2018-12-07T13:41:50.377Z,1.60
2018-12-07T13:44:14.328Z,1.57
2018-12-07T13:46:42.250Z,1.50
2018-12-07T13:49:10.149Z,1.83
2018-12-07T13:51:37.919Z,1.50
2018-12-07T13:54:05.920Z,2.00
2018-12-07T13:56:33.919Z,1.50
2018-12-07T13:59:01.581Z,1.90
2018-12-07T14:01:29.737Z,1.80
2018-12-07T14:03:57.513Z,1.73
2018-12-07T14:06:25.453Z,2.00
2018-12-07T14:08:53.285Z,2.03
2018-12-07T14:11:21.104Z,1.57
2018-12-07T14:13:48.562Z,1.40
2018-12-07T14:16:16.406Z,1.53
2018-12-07T14:18:43.924Z,1.30
2018-12-07T14:21:11.680Z,1.50
2018-12-07T14:23:39.129Z,1.60
2018-12-07T14:26:06.826Z,1.33
2018-12-07T14:28:34.694Z,1.17
2018-12-07T14:31:02.719Z,1.43
2018-12-07T14:33:30.562Z,1.30
2018-12-07T14:35:58.333Z,1.30
2018-12-07T14:38:26.082Z,1.13
2018-12-07T14:40:54.171Z,1.37
2018-12-07T14:43:21.926Z,1.50
2018-12-07T14:45:49.660Z,1.00
2018-12-07T14:48:17.443Z,1.07
2018-12-07T14:50:45.153Z,1.30
2018-12-07T14:53:12.958Z,1.77
2018-12-07T14:55:40.624Z,1.00
2018-12-07T14:58:08.622Z,1.40
2018-12-07T15:00:36.116Z,0.90
2018-12-07T15:03:03.840Z,1.13
2018-12-07T15:05:31.450Z,1.33
2018-12-07T15:07:59.278Z,1.40
2018-12-07T15:10:27.338Z,1.00
2018-12-07T15:12:55.305Z,1.57
2018-12-07T15:15:23.322Z,1.03
2018-12-07T15:17:51.176Z,1.07
2018-12-07T15:20:19.385Z,1.10
2018-12-07T15:22:47.400Z,1.10
2018-12-07T15:25:15.442Z,1.30
2018-12-07T15:27:43.361Z,1.20
2018-12-07T15:30:11.336Z,1.43
2018-12-07T15:32:39.312Z,1.30
2018-12-07T15:35:08.315Z,1.00
2018-12-07T15:37:36.002Z,1.20
2018-12-07T15:40:05.472Z,1.30
2018-12-07T15:42:33.081Z,1.70
2018-12-07T15:45:01.577Z,1.70
2018-12-07T15:47:29.192Z,1.40
2018-12-07T15:49:57.310Z,1.70
2018-12-07T15:52:25.531Z,1.27
2018-12-07T15:54:53.279Z,1.97
2018-12-07T15:57:21.084Z,1.37
2018-12-07T15:59:49.129Z,2.17
2018-12-07T16:02:17.215Z,2.00
2018-12-07T16:04:46.761Z,1.30
2018-12-07T16:07:14.688Z,1.40
2018-12-07T16:09:42.387Z,1.10
2018-12-07T16:12:10.249Z,1.20
2018-12-07T16:14:38.075Z,1.20
2018-12-07T16:17:06.256Z,1.50
2018-12-07T16:19:34.108Z,1.10
2018-12-07T16:22:02.193Z,1.40
2018-12-07T16:24:30.666Z,1.50
2018-12-07T16:26:58.392Z,1.23
2018-12-07T16:29:26.235Z,1.30
2018-12-07T16:31:54.231Z,2.00
2018-12-07T16:34:22.106Z,1.17
2018-12-07T16:36:50.051Z,1.00
2018-12-07T16:39:17.510Z,1.00
2018-12-07T16:41:45.623Z,1.50
2018-12-07T16:44:13.661Z,1.43
2018-12-07T16:46:41.650Z,1.37
2018-12-07T16:49:09.398Z,1.20
2018-12-07T16:51:37.155Z,1.23
2018-12-07T16:54:05.117Z,1.10
2018-12-07T16:56:32.988Z,1.23
2018-12-07T16:59:00.948Z,1.70
2018-12-07T17:01:28.935Z,1.30
2018-12-07T17:03:56.971Z,1.20
2018-12-07T17:06:24.972Z,1.13
2018-12-07T17:08:52.806Z,1.00
2018-12-07T17:11:20.439Z,1.40
2018-12-07T17:13:48.563Z,1.20
2018-12-07T17:16:16.218Z,1.50
2018-12-07T17:18:44.134Z,1.30
2018-12-07T17:21:12.087Z,1.53
2018-12-07T17:23:40.268Z,1.43
2018-12-07T17:26:08.127Z,1.30
2018-12-07T17:28:35.890Z,2.03
2018-12-07T17:31:03.691Z,1.30
2018-12-07T17:33:31.443Z,1.60
2018-12-07T17:35:59.342Z,1.30
2018-12-07T17:38:27.269Z,1.40
2018-12-07T17:40:55.350Z,1.93
2018-12-07T17:43:23.130Z,1.60
2018-12-07T17:45:51.060Z,1.60
2018-12-07T17:48:19.422Z,1.20
2018-12-07T17:50:47.100Z,1.37
2018-12-07T17:53:14.829Z,1.77
2018-12-07T17:55:42.654Z,1.60
2018-12-07T17:58:10.506Z,1.60
2018-12-07T18:00:38.375Z,1.97
2018-12-07T18:03:05.837Z,1.90
2018-12-07T18:05:33.495Z,1.77
2018-12-07T18:08:01.169Z,2.33
2018-12-07T18:10:28.937Z,1.60
2018-12-07T18:12:56.760Z,1.77
2018-12-07T18:15:24.651Z,1.60
2018-12-07T18:17:52.764Z,1.73
2018-12-07T18:20:20.385Z,1.83
2018-12-07T18:22:48.445Z,1.30
2018-12-07T18:25:16.196Z,1.43
2018-12-07T18:27:44.013Z,1.47
2018-12-07T18:30:12.203Z,1.30
2018-12-07T18:32:40.450Z,1.53
2018-12-07T18:35:08.621Z,1.30
2018-12-07T18:37:36.731Z,1.70
2018-12-07T18:40:05.218Z,1.60
2018-12-07T18:42:33.075Z,2.03
2018-12-07T18:45:01.127Z,1.60
2018-12-07T18:47:29.392Z,1.57
2018-12-07T18:49:57.936Z,1.73
2018-12-07T18:52:26.544Z,2.23
2018-12-07T18:54:54.311Z,1.30
2018-12-07T18:57:22.565Z,1.60
2018-12-07T18:59:50.633Z,1.37
2018-12-07T19:02:18.403Z,1.17
2018-12-07T19:04:46.579Z,1.50
2018-12-07T19:07:14.572Z,1.33
2018-12-07T19:09:42.552Z,1.23
2018-12-07T19:12:10.559Z,1.30
2018-12-07T19:14:38.452Z,1.60
2018-12-07T19:17:06.284Z,1.47
2018-12-07T19:19:34.514Z,1.20
2018-12-07T19:22:02.369Z,1.13
2018-12-07T19:24:30.177Z,1.10
2018-12-07T19:26:58.091Z,0.93
2018-12-07T19:29:26.082Z,1.50
2018-12-07T19:31:53.779Z,1.17
2018-12-07T19:34:21.766Z,1.40
2018-12-07T19:36:49.514Z,1.50
2018-12-07T19:39:17.317Z,1.30
2018-12-07T19:41:45.222Z,1.60
2018-12-07T19:44:13.221Z,1.80
2018-12-07T19:46:41.298Z,1.10
2018-12-07T19:49:09.466Z,1.30
2018-12-07T19:51:37.516Z,1.10
2018-12-07T19:54:05.441Z,1.73
2018-12-07T19:56:33.441Z,1.10
2018-12-07T19:59:01.365Z,1.10
2018-12-07T20:01:29.474Z,1.40
2018-12-07T20:03:57.332Z,1.20
2018-12-07T20:06:25.278Z,1.37
2018-12-07T20:08:54.402Z,1.00
2018-12-07T20:11:23.458Z,1.00
2018-12-07T20:13:52.471Z,0.93
2018-12-07T20:16:20.411Z,1.27
2018-12-07T20:18:48.321Z,1.30
2018-12-07T20:21:15.989Z,1.30
2018-12-07T20:23:43.646Z,1.20
2018-12-07T20:26:14.406Z,1.20
2018-12-07T20:28:42.214Z,2.20
2018-12-07T20:31:10.080Z,0.80
2018-12-07T20:33:38.142Z,1.10
2018-12-07T20:36:05.886Z,1.10
2018-12-07T20:38:34.114Z,1.07
2018-12-07T20:41:02.352Z,1.50
2018-12-07T20:43:30.519Z,1.40
2018-12-07T20:45:58.442Z,1.00
2018-12-07T20:48:26.372Z,1.00
2018-12-07T20:50:53.799Z,1.20
2018-12-07T20:53:21.760Z,0.90
2018-12-07T20:55:49.561Z,1.10
2018-12-07T20:58:17.432Z,1.27
2018-12-07T21:00:45.330Z,1.20
2018-12-07T21:03:13.147Z,1.80
2018-12-07T21:07:21.124Z,1.30
2018-12-07T21:09:54.037Z,1.00
2018-12-07T21:13:38.705Z,1.40
2018-12-07T21:17:19.268Z,1.10
2018-12-07T21:19:59.525Z,1.40
2018-12-07T21:22:27.393Z,1.10
2018-12-07T21:24:55.329Z,1.07
2018-12-07T21:27:23.043Z,1.20
2018-12-07T21:33:08.184Z,1.00
2018-12-07T21:36:42.342Z,1.60
2018-12-07T21:39:30.886Z,1.00
2018-12-07T21:41:58.634Z,0.80
2018-12-07T21:44:26.700Z,1.10
2018-12-07T21:46:54.567Z,1.30
2018-12-07T21:49:23.451Z,1.50
2018-12-07T21:51:58.005Z,1.40
2018-12-07T21:54:26.016Z,1.13
2018-12-07T21:56:54.186Z,1.40
2018-12-07T21:59:22.233Z,1.30
2018-12-07T22:01:51.860Z,1.20
2018-12-07T22:04:19.831Z,1.30
2018-12-07T22:06:48.202Z,1.33
2018-12-07T22:09:15.770Z,1.50
2018-12-07T22:11:43.527Z,2.40
2018-12-07T22:14:11.389Z,1.20
2018-12-07T22:16:39.857Z,1.80
2018-12-07T22:19:07.468Z,1.33
2018-12-07T22:21:35.204Z,1.67
2018-12-07T22:24:02.886Z,1.50
2018-12-07T22:26:32.527Z,1.90
2018-12-07T22:29:00.410Z,1.80
2018-12-07T22:31:28.366Z,1.70
2018-12-07T22:33:56.466Z,1.90
2018-12-07T22:36:24.632Z,2.07
2018-12-07T22:38:52.306Z,1.60
2018-12-07T22:41:20.190Z,1.87
2018-12-07T22:43:48.003Z,2.27
2018-12-07T22:46:16.029Z,1.60
2018-12-07T22:48:44.109Z,1.70
2018-12-07T22:51:11.867Z,1.97
2018-12-07T22:53:39.661Z,2.00
2018-12-07T22:56:13.115Z,2.00
2018-12-07T22:58:40.932Z,2.00
2018-12-07T23:01:08.768Z,2.07
2018-12-07T23:03:36.524Z,2.27
2018-12-07T23:06:04.352Z,2.47
2018-12-07T23:08:32.124Z,1.97
2018-12-07T23:10:59.785Z,2.37
2018-12-07T23:13:27.504Z,2.00
2018-12-07T23:15:54.854Z,2.00
2018-12-07T23:18:22.648Z,2.40
2018-12-07T23:20:49.980Z,2.57
2018-12-07T23:23:17.824Z,2.23
2018-12-07T23:25:45.522Z,1.90
2018-12-07T23:28:13.252Z,2.67
2018-12-07T23:30:40.729Z,2.30
2018-12-07T23:33:08.451Z,1.97
2018-12-07T23:35:35.882Z,2.07
2018-12-07T23:38:03.505Z,2.00
2018-12-07T23:40:31.114Z,4.00
2018-12-07T23:43:01.085Z,2.50
2018-12-07T23:45:29.477Z,1.93
2018-12-07T23:47:57.230Z,1.83
2018-12-07T23:50:24.887Z,1.93
2018-12-07T23:52:52.466Z,2.20
2018-12-07T23:55:20.304Z,2.00
2018-12-07T23:57:47.664Z,2.13
